Hutchinson, KS

3:22 AM CDT on July 29, 2014 (GMT -0500)
KKSHUTCH9 Elev 1549 ft | 38.08 °N, 97.92 °W | Change Station

Current weather conditions updated 2 seconds ago

Partly Cloudy
Partly Cloudy
68.7 °F
Feels Like 68.7 °F
N
3.1
Wind Variable Wind from East
Gusts 5.4 mph

Today is forecast to be Cooler than yesterday. Showers late tonight.

Today
High -- | Low -- °F
--% Chance of Precip.
Yesterday
High -- | Low -- °F
Precip. -- in
6:32 AM 8:43 PM
Waxing Crescent, 5% visible
Pressure 30.14 in
Visibility 10.0 miles
Clouds Few 12000 ft
Dew Point 58 °F
Humidity 69%
Rainfall 0.00 in
Snow Depth Not available.
UV 0 out of 12
Pollen 6.70 out of 12
Air Quality Not available.
Flu Activity Not available.
METAR KHUT 290752Z AUTO 07005KT 10SM FEW120 18/13 A3019 RMK AO2 SLP204 T01780133

More Conditions Fewer Conditions

Pressure 30.14 in
Visibility 10.0 miles
Clouds Few 12000 ft
Dew Point 58 °F
Humidity 69%
Rainfall 0.00 in
Snow Depth Not available.
UV 0 out of 12
Pollen 6.70 out of 12
Air Quality Not available.
Flu Activity Not available.
METAR KHUT 290752Z AUTO 07005KT 10SM FEW120 18/13 A3019 RMK AO2 SLP204 T01780133

More Conditions Fewer Conditions

10-Day Weather Forecast

Almanac

Astronomy

Jul. 29, 2014 Rise Set
Actual Time 6:32 AM CDT 8:43 PM CDT
Civil Twilight 6:02 AM CDT 9:13 PM CDT
Nautical Twilight 5:26 AM CDT 9:49 PM CDT
Astronomical Twilight 4:46 AM CDT 10:28 PM CDT
Moon 9:06 AM CDT 10:00 PM CDT
Length of Visible Light 15h 10m
Length of Day
14h 11m
Tomorrow will be 1m 46s shorter.
Waxing Crescent, 5% of the Moon is Illuminated
Today
Waxing Crescent
Aug 3
First Quarter
Aug 10
Full
Aug 17
Last Quarter
Aug 25
New

Today's Extremes

State Highs State Lows

Community

WunderPhotos

Upload Photos

1,738,654 photos uploaded!

Nearby

Snow Depth

Station Depth Elevation
No new snow has been reported.

Earthquake Activity

City Distance Mag. Time & Date
Helena, Oklahoma 98 miles 2.6 12:50 PM CDT
2014-07-22
Minimum magnitude displayed is 2.5.

Coastal Water Temperatures

Place Temperature
No Stations Reporting

Nearby Weather Stations

Station Location Temp. Dew Point Humidity Wind Precip. Elev Updated Type
Hutchinson, KS 68.7 °F 58 °F 69% East  at  3.1 mph 0.00 in / hr 1549 ft 3:22 AM CDT Rapid Fire
MesoWest PRTRGE , Partridge, KS 69 °F - - North  at  - 0.00 in / hr 1623 ft 2:05 AM CDT MADIS
Inman, Inman, KS 65.7 °F 56 °F 70% East  at  0.0 mph 0.00 in / hr 1526 ft 3:21 AM CDT Normal
Essex Heights/12th Halstead, Halstead, KS 63.8 °F 58 °F 82% NNE  at  0.0 mph 0.00 in / hr 1420 ft 3:20 AM CDT Normal
McPherson South Ind., McPherson, KS 65.5 °F 55 °F 69% ENE  at  3.0 mph 0.00 in / hr 1486 ft 3:20 AM CDT Normal
South McPherson, McPherson, KS 67.1 °F 57 °F 70% North  at  0.0 mph - / hr 1493 ft 3:10 AM CDT Normal
Mission Rd/US 50 Halstead, Halstead, KS 63.5 °F 58 °F 81% North  at  0.0 mph 0.00 in / hr 1408 ft 3:20 AM CDT Normal

Show More Stations Show Fewer Stations